sensor_id;sensor_type;location;lat;lon;timestamp;temperature;humidity
85614;DHT22;76041;50.924;3.932;2024-02-26T00:00:36;9.60;77.40
85614;DHT22;76041;50.924;3.932;2024-02-26T00:03:03;9.60;77.10
85614;DHT22;76041;50.924;3.932;2024-02-26T00:05:29;9.60;76.80
85614;DHT22;76041;50.924;3.932;2024-02-26T00:07:57;9.40;77.50
85614;DHT22;76041;50.924;3.932;2024-02-26T00:10:23;9.40;77.90
85614;DHT22;76041;50.924;3.932;2024-02-26T00:12:49;9.30;78.30
85614;DHT22;76041;50.924;3.932;2024-02-26T00:15:15;9.30;78.30
85614;DHT22;76041;50.924;3.932;2024-02-26T00:17:41;9.30;78.30
85614;DHT22;76041;50.924;3.932;2024-02-26T00:20:07;9.10;79.10
85614;DHT22;76041;50.924;3.932;2024-02-26T00:22:36;9.10;79.10
85614;DHT22;76041;50.924;3.932;2024-02-26T00:25:02;9.20;78.60
85614;DHT22;76041;50.924;3.932;2024-02-26T00:27:28;9.20;79.10
85614;DHT22;76041;50.924;3.932;2024-02-26T00:29:54;9.20;78.80
85614;DHT22;76041;50.924;3.932;2024-02-26T00:32:20;9.10;79.00
85614;DHT22;76041;50.924;3.932;2024-02-26T00:34:46;9.00;79.30
85614;DHT22;76041;50.924;3.932;2024-02-26T00:37:11;8.90;79.50
85614;DHT22;76041;50.924;3.932;2024-02-26T00:39:37;8.90;79.80
85614;DHT22;76041;50.924;3.932;2024-02-26T00:42:03;9.00;79.70
85614;DHT22;76041;50.924;3.932;2024-02-26T00:44:29;9.00;79.50
85614;DHT22;76041;50.924;3.932;2024-02-26T00:46:55;8.90;79.50
85614;DHT22;76041;50.924;3.932;2024-02-26T00:49:21;9.00;79.70
85614;DHT22;76041;50.924;3.932;2024-02-26T00:51:47;8.90;79.90
85614;DHT22;76041;50.924;3.932;2024-02-26T00:54:13;9.00;80.20
85614;DHT22;76041;50.924;3.932;2024-02-26T00:56:39;9.00;80.00
85614;DHT22;76041;50.924;3.932;2024-02-26T00:59:05;8.90;80.10
85614;DHT22;76041;50.924;3.932;2024-02-26T01:01:31;8.90;80.90
85614;DHT22;76041;50.924;3.932;2024-02-26T01:03:57;8.90;81.10
85614;DHT22;76041;50.924;3.932;2024-02-26T01:06:23;8.90;80.60
85614;DHT22;76041;50.924;3.932;2024-02-26T01:08:49;8.90;80.20
85614;DHT22;76041;50.924;3.932;2024-02-26T01:11:16;8.90;80.90
85614;DHT22;76041;50.924;3.932;2024-02-26T01:13:42;8.80;81.20
85614;DHT22;76041;50.924;3.932;2024-02-26T01:16:08;8.80;81.70
85614;DHT22;76041;50.924;3.932;2024-02-26T01:18:34;8.90;80.70
85614;DHT22;76041;50.924;3.932;2024-02-26T01:21:00;8.90;81.40
85614;DHT22;76041;50.924;3.932;2024-02-26T01:23:25;8.80;81.00
85614;DHT22;76041;50.924;3.932;2024-02-26T01:25:51;8.80;81.20
85614;DHT22;76041;50.924;3.932;2024-02-26T01:28:17;8.90;81.00
85614;DHT22;76041;50.924;3.932;2024-02-26T01:30:43;8.80;80.60
85614;DHT22;76041;50.924;3.932;2024-02-26T01:33:09;8.70;81.30
85614;DHT22;76041;50.924;3.932;2024-02-26T01:35:35;8.80;80.80
85614;DHT22;76041;50.924;3.932;2024-02-26T01:38:01;8.80;81.30
85614;DHT22;76041;50.924;3.932;2024-02-26T01:40:27;8.80;81.00
85614;DHT22;76041;50.924;3.932;2024-02-26T01:42:54;8.70;81.30
85614;DHT22;76041;50.924;3.932;2024-02-26T01:45:19;8.70;81.80
85614;DHT22;76041;50.924;3.932;2024-02-26T01:47:53;8.80;81.70
85614;DHT22;76041;50.924;3.932;2024-02-26T01:50:20;8.80;81.00
85614;DHT22;76041;50.924;3.932;2024-02-26T01:52:49;8.80;81.40
85614;DHT22;76041;50.924;3.932;2024-02-26T01:55:18;8.70;81.70
85614;DHT22;76041;50.924;3.932;2024-02-26T01:57:45;8.70;81.20
85614;DHT22;76041;50.924;3.932;2024-02-26T02:00:12;8.80;81.30
85614;DHT22;76041;50.924;3.932;2024-02-26T02:02:39;8.70;81.20
85614;DHT22;76041;50.924;3.932;2024-02-26T02:05:09;8.60;81.20
85614;DHT22;76041;50.924;3.932;2024-02-26T02:07:36;8.50;82.10
85614;DHT22;76041;50.924;3.932;2024-02-26T02:10:02;8.40;82.50
85614;DHT22;76041;50.924;3.932;2024-02-26T02:12:29;8.50;82.60
85614;DHT22;76041;50.924;3.932;2024-02-26T02:14:58;8.50;82.30
85614;DHT22;76041;50.924;3.932;2024-02-26T02:17:28;8.50;82.30
85614;DHT22;76041;50.924;3.932;2024-02-26T02:19:54;8.40;82.80
85614;DHT22;76041;50.924;3.932;2024-02-26T02:22:20;8.50;82.40
85614;DHT22;76041;50.924;3.932;2024-02-26T02:24:46;8.50;82.50
85614;DHT22;76041;50.924;3.932;2024-02-26T02:27:12;8.60;82.20
85614;DHT22;76041;50.924;3.932;2024-02-26T02:29:38;8.50;82.70
85614;DHT22;76041;50.924;3.932;2024-02-26T02:32:05;8.40;83.20
85614;DHT22;76041;50.924;3.932;2024-02-26T02:34:32;8.30;83.20
85614;DHT22;76041;50.924;3.932;2024-02-26T02:36:58;8.30;83.30
85614;DHT22;76041;50.924;3.932;2024-02-26T02:39:24;8.40;83.40
85614;DHT22;76041;50.924;3.932;2024-02-26T02:41:50;8.40;83.20
85614;DHT22;76041;50.924;3.932;2024-02-26T02:44:16;8.40;83.40
85614;DHT22;76041;50.924;3.932;2024-02-26T02:46:42;8.40;83.10
85614;DHT22;76041;50.924;3.932;2024-02-26T02:49:09;8.50;82.70
85614;DHT22;76041;50.924;3.932;2024-02-26T02:51:39;8.50;82.80
85614;DHT22;76041;50.924;3.932;2024-02-26T02:54:05;8.40;83.30
85614;DHT22;76041;50.924;3.932;2024-02-26T02:56:31;8.40;82.80
85614;DHT22;76041;50.924;3.932;2024-02-26T02:58:57;8.40;82.80
85614;DHT22;76041;50.924;3.932;2024-02-26T03:01:23;8.30;83.40
85614;DHT22;76041;50.924;3.932;2024-02-26T03:03:49;8.20;83.10
85614;DHT22;76041;50.924;3.932;2024-02-26T03:06:15;8.20;83.60
85614;DHT22;76041;50.924;3.932;2024-02-26T03:08:41;8.20;83.50
85614;DHT22;76041;50.924;3.932;2024-02-26T03:11:07;8.20;84.00
85614;DHT22;76041;50.924;3.932;2024-02-26T03:13:33;8.30;83.10
85614;DHT22;76041;50.924;3.932;2024-02-26T03:16:05;8.30;83.00
85614;DHT22;76041;50.924;3.932;2024-02-26T03:18:31;8.20;83.40
85614;DHT22;76041;50.924;3.932;2024-02-26T03:20:57;8.10;84.10
85614;DHT22;76041;50.924;3.932;2024-02-26T03:23:23;8.10;83.80
85614;DHT22;76041;50.924;3.932;2024-02-26T03:25:49;8.20;83.50
85614;DHT22;76041;50.924;3.932;2024-02-26T03:28:15;8.10;83.50
85614;DHT22;76041;50.924;3.932;2024-02-26T03:30:41;8.10;83.60
85614;DHT22;76041;50.924;3.932;2024-02-26T03:33:07;8.00;83.50
85614;DHT22;76041;50.924;3.932;2024-02-26T03:35:33;8.10;83.30
85614;DHT22;76041;50.924;3.932;2024-02-26T03:37:59;8.10;83.80
85614;DHT22;76041;50.924;3.932;2024-02-26T03:40:25;8.10;83.50
85614;DHT22;76041;50.924;3.932;2024-02-26T03:42:51;8.00;84.00
85614;DHT22;76041;50.924;3.932;2024-02-26T03:45:19;8.00;84.10
85614;DHT22;76041;50.924;3.932;2024-02-26T03:47:45;8.00;84.00
85614;DHT22;76041;50.924;3.932;2024-02-26T03:50:11;8.10;83.00
85614;DHT22;76041;50.924;3.932;2024-02-26T03:52:37;8.10;83.30
85614;DHT22;76041;50.924;3.932;2024-02-26T03:55:04;8.10;83.30
85614;DHT22;76041;50.924;3.932;2024-02-26T03:57:30;8.00;83.40
85614;DHT22;76041;50.924;3.932;2024-02-26T03:59:56;7.90;84.10
85614;DHT22;76041;50.924;3.932;2024-02-26T04:02:22;7.90;84.00
85614;DHT22;76041;50.924;3.932;2024-02-26T04:04:49;7.90;83.80
85614;DHT22;76041;50.924;3.932;2024-02-26T04:07:15;7.90;84.10
85614;DHT22;76041;50.924;3.932;2024-02-26T04:09:41;7.90;84.30
85614;DHT22;76041;50.924;3.932;2024-02-26T04:12:07;8.00;83.60
85614;DHT22;76041;50.924;3.932;2024-02-26T04:14:33;8.00;83.70
85614;DHT22;76041;50.924;3.932;2024-02-26T04:16:59;7.80;84.60
85614;DHT22;76041;50.924;3.932;2024-02-26T04:19:25;7.80;84.20
85614;DHT22;76041;50.924;3.932;2024-02-26T04:21:51;7.80;84.20
85614;DHT22;76041;50.924;3.932;2024-02-26T04:24:17;7.70;84.50
85614;DHT22;76041;50.924;3.932;2024-02-26T04:26:43;7.80;84.60
85614;DHT22;76041;50.924;3.932;2024-02-26T04:29:09;7.70;84.60
85614;DHT22;76041;50.924;3.932;2024-02-26T04:31:37;7.60;84.80
85614;DHT22;76041;50.924;3.932;2024-02-26T04:34:03;7.50;85.40
85614;DHT22;76041;50.924;3.932;2024-02-26T04:36:29;7.50;85.90
85614;DHT22;76041;50.924;3.932;2024-02-26T04:38:55;7.60;85.50
85614;DHT22;76041;50.924;3.932;2024-02-26T04:41:21;7.70;85.40
85614;DHT22;76041;50.924;3.932;2024-02-26T04:43:47;7.70;85.00
85614;DHT22;76041;50.924;3.932;2024-02-26T04:46:13;7.70;85.00
85614;DHT22;76041;50.924;3.932;2024-02-26T04:48:39;7.70;84.30
85614;DHT22;76041;50.924;3.932;2024-02-26T04:51:07;7.70;85.40
85614;DHT22;76041;50.924;3.932;2024-02-26T04:53:33;7.80;84.70
85614;DHT22;76041;50.924;3.932;2024-02-26T04:55:59;7.90;84.00
85614;DHT22;76041;50.924;3.932;2024-02-26T04:58:25;7.90;84.10
85614;DHT22;76041;50.924;3.932;2024-02-26T05:00:52;7.80;84.40
85614;DHT22;76041;50.924;3.932;2024-02-26T05:03:18;7.90;84.40
85614;DHT22;76041;50.924;3.932;2024-02-26T05:05:44;7.70;84.60
85614;DHT22;76041;50.924;3.932;2024-02-26T05:08:10;7.80;84.80
85614;DHT22;76041;50.924;3.932;2024-02-26T05:10:37;7.70;84.90
85614;DHT22;76041;50.924;3.932;2024-02-26T05:13:09;7.60;84.70
85614;DHT22;76041;50.924;3.932;2024-02-26T05:15:35;7.60;85.30
85614;DHT22;76041;50.924;3.932;2024-02-26T05:18:02;7.50;85.80
85614;DHT22;76041;50.924;3.932;2024-02-26T05:20:29;7.50;85.90
85614;DHT22;76041;50.924;3.932;2024-02-26T05:22:55;7.60;85.80
85614;DHT22;76041;50.924;3.932;2024-02-26T05:25:21;7.50;86.10
85614;DHT22;76041;50.924;3.932;2024-02-26T05:27:47;7.50;86.10
85614;DHT22;76041;50.924;3.932;2024-02-26T05:30:13;7.60;86.00
85614;DHT22;76041;50.924;3.932;2024-02-26T05:32:39;7.60;85.90
85614;DHT22;76041;50.924;3.932;2024-02-26T05:35:06;7.80;85.30
85614;DHT22;76041;50.924;3.932;2024-02-26T05:37:32;7.90;84.60
85614;DHT22;76041;50.924;3.932;2024-02-26T05:39:59;7.90;84.60
85614;DHT22;76041;50.924;3.932;2024-02-26T05:42:25;7.70;85.00
85614;DHT22;76041;50.924;3.932;2024-02-26T05:44:51;7.70;85.30
85614;DHT22;76041;50.924;3.932;2024-02-26T05:47:17;7.80;85.10
85614;DHT22;76041;50.924;3.932;2024-02-26T05:49:43;7.70;85.00
85614;DHT22;76041;50.924;3.932;2024-02-26T05:52:10;7.70;85.20
85614;DHT22;76041;50.924;3.932;2024-02-26T05:54:36;7.60;85.50
85614;DHT22;76041;50.924;3.932;2024-02-26T05:57:02;7.70;85.60
85614;DHT22;76041;50.924;3.932;2024-02-26T05:59:28;7.80;84.90
85614;DHT22;76041;50.924;3.932;2024-02-26T06:01:54;7.80;84.80
85614;DHT22;76041;50.924;3.932;2024-02-26T06:04:20;7.80;85.10
85614;DHT22;76041;50.924;3.932;2024-02-26T06:06:46;7.90;84.50
85614;DHT22;76041;50.924;3.932;2024-02-26T06:09:12;7.90;84.60
85614;DHT22;76041;50.924;3.932;2024-02-26T06:11:38;7.90;84.50
85614;DHT22;76041;50.924;3.932;2024-02-26T06:14:04;7.90;83.90
85614;DHT22;76041;50.924;3.932;2024-02-26T06:16:30;7.90;83.70
85614;DHT22;76041;50.924;3.932;2024-02-26T06:18:57;7.80;85.10
85614;DHT22;76041;50.924;3.932;2024-02-26T06:21:23;7.80;84.80
85614;DHT22;76041;50.924;3.932;2024-02-26T06:23:49;7.60;84.80
85614;DHT22;76041;50.924;3.932;2024-02-26T06:26:16;7.60;85.50
85614;DHT22;76041;50.924;3.932;2024-02-26T06:28:42;7.60;85.20
85614;DHT22;76041;50.924;3.932;2024-02-26T06:31:08;7.60;85.20
85614;DHT22;76041;50.924;3.932;2024-02-26T06:33:34;7.60;85.00
85614;DHT22;76041;50.924;3.932;2024-02-26T06:36:00;7.60;84.70
85614;DHT22;76041;50.924;3.932;2024-02-26T06:38:26;7.60;84.90
85614;DHT22;76041;50.924;3.932;2024-02-26T06:40:53;7.60;85.30
85614;DHT22;76041;50.924;3.932;2024-02-26T06:43:19;7.60;85.40
85614;DHT22;76041;50.924;3.932;2024-02-26T06:45:45;7.60;85.10
85614;DHT22;76041;50.924;3.932;2024-02-26T06:48:10;7.70;85.20
85614;DHT22;76041;50.924;3.932;2024-02-26T06:50:36;7.70;84.80
85614;DHT22;76041;50.924;3.932;2024-02-26T06:53:03;7.70;85.00
85614;DHT22;76041;50.924;3.932;2024-02-26T06:55:29;7.70;84.60
85614;DHT22;76041;50.924;3.932;2024-02-26T06:57:55;7.60;84.90
85614;DHT22;76041;50.924;3.932;2024-02-26T07:00:21;7.60;85.80
85614;DHT22;76041;50.924;3.932;2024-02-26T07:02:47;7.50;85.60
85614;DHT22;76041;50.924;3.932;2024-02-26T07:05:14;7.60;85.70
85614;DHT22;76041;50.924;3.932;2024-02-26T07:07:40;7.70;85.40
85614;DHT22;76041;50.924;3.932;2024-02-26T07:10:06;7.70;85.30
85614;DHT22;76041;50.924;3.932;2024-02-26T07:12:32;7.60;85.40
85614;DHT22;76041;50.924;3.932;2024-02-26T07:14:58;7.60;85.80
85614;DHT22;76041;50.924;3.932;2024-02-26T07:17:24;7.40;86.00
85614;DHT22;76041;50.924;3.932;2024-02-26T07:19:50;7.40;86.40
85614;DHT22;76041;50.924;3.932;2024-02-26T07:22:16;7.40;86.30
85614;DHT22;76041;50.924;3.932;2024-02-26T07:24:42;7.40;86.60
85614;DHT22;76041;50.924;3.932;2024-02-26T07:27:08;7.50;86.40
85614;DHT22;76041;50.924;3.932;2024-02-26T07:29:34;7.30;86.90
85614;DHT22;76041;50.924;3.932;2024-02-26T07:32:01;7.50;86.90
85614;DHT22;76041;50.924;3.932;2024-02-26T07:34:26;7.50;86.20
85614;DHT22;76041;50.924;3.932;2024-02-26T07:36:56;7.50;86.60
85614;DHT22;76041;50.924;3.932;2024-02-26T07:39:22;7.40;87.00
85614;DHT22;76041;50.924;3.932;2024-02-26T07:41:48;7.60;86.20
85614;DHT22;76041;50.924;3.932;2024-02-26T07:44:17;7.60;86.20
85614;DHT22;76041;50.924;3.932;2024-02-26T07:46:44;7.60;85.70
85614;DHT22;76041;50.924;3.932;2024-02-26T07:49:10;7.60;86.30
85614;DHT22;76041;50.924;3.932;2024-02-26T07:51:37;7.40;86.40
85614;DHT22;76041;50.924;3.932;2024-02-26T07:54:03;7.50;86.20
85614;DHT22;76041;50.924;3.932;2024-02-26T07:56:29;7.50;86.50
85614;DHT22;76041;50.924;3.932;2024-02-26T07:58:55;7.50;86.50
85614;DHT22;76041;50.924;3.932;2024-02-26T08:01:21;7.50;86.40
85614;DHT22;76041;50.924;3.932;2024-02-26T08:03:47;7.40;86.30
85614;DHT22;76041;50.924;3.932;2024-02-26T08:06:12;7.40;86.70
85614;DHT22;76041;50.924;3.932;2024-02-26T08:08:38;7.30;87.00
85614;DHT22;76041;50.924;3.932;2024-02-26T08:11:04;7.30;87.50
85614;DHT22;76041;50.924;3.932;2024-02-26T08:13:30;7.30;87.50
85614;DHT22;76041;50.924;3.932;2024-02-26T08:15:56;7.50;86.80
85614;DHT22;76041;50.924;3.932;2024-02-26T08:18:22;7.50;85.70
85614;DHT22;76041;50.924;3.932;2024-02-26T08:20:48;7.40;86.30
85614;DHT22;76041;50.924;3.932;2024-02-26T08:23:14;7.50;86.00
85614;DHT22;76041;50.924;3.932;2024-02-26T08:25:40;7.50;86.40
85614;DHT22;76041;50.924;3.932;2024-02-26T08:28:06;7.60;85.90
85614;DHT22;76041;50.924;3.932;2024-02-26T08:30:32;7.60;85.70
85614;DHT22;76041;50.924;3.932;2024-02-26T08:32:59;7.60;85.40
85614;DHT22;76041;50.924;3.932;2024-02-26T08:35:25;7.40;85.40
85614;DHT22;76041;50.924;3.932;2024-02-26T08:37:51;7.40;86.10
85614;DHT22;76041;50.924;3.932;2024-02-26T08:40:17;7.50;85.60
85614;DHT22;76041;50.924;3.932;2024-02-26T08:42:45;7.40;86.20
85614;DHT22;76041;50.924;3.932;2024-02-26T08:45:11;7.40;86.50
85614;DHT22;76041;50.924;3.932;2024-02-26T08:47:38;7.40;85.80
85614;DHT22;76041;50.924;3.932;2024-02-26T08:50:04;7.40;85.80
85614;DHT22;76041;50.924;3.932;2024-02-26T08:52:30;7.50;85.50
85614;DHT22;76041;50.924;3.932;2024-02-26T08:54:56;7.40;85.70
85614;DHT22;76041;50.924;3.932;2024-02-26T08:57:22;7.50;86.00
85614;DHT22;76041;50.924;3.932;2024-02-26T08:59:49;7.60;85.50
85614;DHT22;76041;50.924;3.932;2024-02-26T09:02:15;7.60;84.90
85614;DHT22;76041;50.924;3.932;2024-02-26T09:04:41;7.70;84.70
85614;DHT22;76041;50.924;3.932;2024-02-26T09:07:06;7.50;84.70
85614;DHT22;76041;50.924;3.932;2024-02-26T09:09:32;7.50;84.80
85614;DHT22;76041;50.924;3.932;2024-02-26T09:11:58;7.50;84.60
85614;DHT22;76041;50.924;3.932;2024-02-26T09:14:24;7.50;85.20
85614;DHT22;76041;50.924;3.932;2024-02-26T09:16:49;7.40;85.70
85614;DHT22;76041;50.924;3.932;2024-02-26T09:19:16;7.50;85.50
85614;DHT22;76041;50.924;3.932;2024-02-26T09:21:43;7.50;85.00
85614;DHT22;76041;50.924;3.932;2024-02-26T09:24:10;7.60;85.10
85614;DHT22;76041;50.924;3.932;2024-02-26T09:26:37;7.60;85.20
85614;DHT22;76041;50.924;3.932;2024-02-26T09:29:03;7.60;85.20
85614;DHT22;76041;50.924;3.932;2024-02-26T09:31:32;7.60;84.80
85614;DHT22;76041;50.924;3.932;2024-02-26T09:33:59;7.50;85.40
85614;DHT22;76041;50.924;3.932;2024-02-26T09:36:25;7.50;85.70
85614;DHT22;76041;50.924;3.932;2024-02-26T09:38:51;7.40;85.80
85614;DHT22;76041;50.924;3.932;2024-02-26T09:41:17;7.40;86.00
85614;DHT22;76041;50.924;3.932;2024-02-26T09:43:45;7.40;85.60
85614;DHT22;76041;50.924;3.932;2024-02-26T09:46:13;7.50;85.90
85614;DHT22;76041;50.924;3.932;2024-02-26T09:48:44;7.40;86.20
85614;DHT22;76041;50.924;3.932;2024-02-26T09:51:11;7.30;86.60
85614;DHT22;76041;50.924;3.932;2024-02-26T09:53:39;7.50;86.30
85614;DHT22;76041;50.924;3.932;2024-02-26T09:56:08;7.50;86.60
85614;DHT22;76041;50.924;3.932;2024-02-26T09:58:34;7.60;85.90
85614;DHT22;76041;50.924;3.932;2024-02-26T10:01:02;7.60;85.60
85614;DHT22;76041;50.924;3.932;2024-02-26T10:03:36;7.60;85.60
85614;DHT22;76041;50.924;3.932;2024-02-26T10:06:04;7.60;85.50
85614;DHT22;76041;50.924;3.932;2024-02-26T10:08:31;7.70;84.70
85614;DHT22;76041;50.924;3.932;2024-02-26T10:10:58;7.70;84.90
85614;DHT22;76041;50.924;3.932;2024-02-26T10:13:24;7.60;85.50
85614;DHT22;76041;50.924;3.932;2024-02-26T10:15:51;7.40;85.50
85614;DHT22;76041;50.924;3.932;2024-02-26T10:18:17;7.50;86.20
85614;DHT22;76041;50.924;3.932;2024-02-26T10:20:45;7.50;86.20
85614;DHT22;76041;50.924;3.932;2024-02-26T10:23:26;7.40;86.30
85614;DHT22;76041;50.924;3.932;2024-02-26T10:25:55;7.40;86.00
85614;DHT22;76041;50.924;3.932;2024-02-26T10:28:21;7.50;86.10
85614;DHT22;76041;50.924;3.932;2024-02-26T10:30:47;7.50;85.70
85614;DHT22;76041;50.924;3.932;2024-02-26T10:33:13;7.50;85.70
85614;DHT22;76041;50.924;3.932;2024-02-26T10:35:45;7.40;86.30
85614;DHT22;76041;50.924;3.932;2024-02-26T10:38:11;7.50;86.10
85614;DHT22;76041;50.924;3.932;2024-02-26T10:40:37;7.50;86.10
85614;DHT22;76041;50.924;3.932;2024-02-26T10:43:03;7.50;86.20
85614;DHT22;76041;50.924;3.932;2024-02-26T10:45:29;7.60;85.10
85614;DHT22;76041;50.924;3.932;2024-02-26T10:47:55;7.70;85.50
85614;DHT22;76041;50.924;3.932;2024-02-26T10:50:21;7.70;84.70
85614;DHT22;76041;50.924;3.932;2024-02-26T10:52:46;7.70;84.60
85614;DHT22;76041;50.924;3.932;2024-02-26T10:55:16;7.50;84.30
85614;DHT22;76041;50.924;3.932;2024-02-26T10:57:46;7.70;84.50
85614;DHT22;76041;50.924;3.932;2024-02-26T11:00:16;7.60;84.40
85614;DHT22;76041;50.924;3.932;2024-02-26T11:02:45;7.50;84.80
85614;DHT22;76041;50.924;3.932;2024-02-26T11:05:12;7.40;85.50
85614;DHT22;76041;50.924;3.932;2024-02-26T11:07:41;7.40;86.10
85614;DHT22;76041;50.924;3.932;2024-02-26T11:10:08;7.40;85.60
85614;DHT22;76041;50.924;3.932;2024-02-26T11:12:35;7.40;85.30
85614;DHT22;76041;50.924;3.932;2024-02-26T11:15:03;7.40;85.60
85614;DHT22;76041;50.924;3.932;2024-02-26T11:17:43;7.40;85.70
85614;DHT22;76041;50.924;3.932;2024-02-26T11:20:10;7.40;85.80
85614;DHT22;76041;50.924;3.932;2024-02-26T11:22:39;7.40;85.00
85614;DHT22;76041;50.924;3.932;2024-02-26T11:25:05;7.40;85.90
85614;DHT22;76041;50.924;3.932;2024-02-26T11:27:39;7.30;86.20
85614;DHT22;76041;50.924;3.932;2024-02-26T11:30:10;7.50;86.00
85614;DHT22;76041;50.924;3.932;2024-02-26T11:32:37;7.50;85.20
85614;DHT22;76041;50.924;3.932;2024-02-26T11:35:04;7.60;85.00
85614;DHT22;76041;50.924;3.932;2024-02-26T11:37:31;7.70;85.00
85614;DHT22;76041;50.924;3.932;2024-02-26T11:39:59;7.70;84.60
85614;DHT22;76041;50.924;3.932;2024-02-26T11:42:26;7.70;84.30
85614;DHT22;76041;50.924;3.932;2024-02-26T11:44:54;7.80;84.30
85614;DHT22;76041;50.924;3.932;2024-02-26T11:47:22;7.60;84.10
85614;DHT22;76041;50.924;3.932;2024-02-26T11:49:48;7.60;85.30
85614;DHT22;76041;50.924;3.932;2024-02-26T11:52:15;7.80;83.90
85614;DHT22;76041;50.924;3.932;2024-02-26T11:54:56;7.80;84.00
85614;DHT22;76041;50.924;3.932;2024-02-26T11:57:27;8.20;82.70
85614;DHT22;76041;50.924;3.932;2024-02-26T11:59:54;8.10;83.10
85614;DHT22;76041;50.924;3.932;2024-02-26T12:02:51;8.00;83.60
85614;DHT22;76041;50.924;3.932;2024-02-26T12:05:23;8.10;83.20
85614;DHT22;76041;50.924;3.932;2024-02-26T12:07:52;7.90;83.20
85614;DHT22;76041;50.924;3.932;2024-02-26T12:12:59;7.70;83.40
85614;DHT22;76041;50.924;3.932;2024-02-26T12:15:34;7.60;84.70
85614;DHT22;76041;50.924;3.932;2024-02-26T12:18:03;7.40;84.80
85614;DHT22;76041;50.924;3.932;2024-02-26T12:20:29;7.50;84.00
85614;DHT22;76041;50.924;3.932;2024-02-26T12:22:56;7.50;84.20
85614;DHT22;76041;50.924;3.932;2024-02-26T12:25:28;7.40;85.10
85614;DHT22;76041;50.924;3.932;2024-02-26T12:27:56;7.40;84.90
85614;DHT22;76041;50.924;3.932;2024-02-26T12:30:23;7.50;85.40
85614;DHT22;76041;50.924;3.932;2024-02-26T12:32:51;7.70;84.70
85614;DHT22;76041;50.924;3.932;2024-02-26T12:35:17;7.70;84.60
85614;DHT22;76041;50.924;3.932;2024-02-26T12:37:44;7.70;83.70
85614;DHT22;76041;50.924;3.932;2024-02-26T12:40:11;7.70;84.00
85614;DHT22;76041;50.924;3.932;2024-02-26T12:42:38;7.70;83.70
85614;DHT22;76041;50.924;3.932;2024-02-26T12:45:12;7.60;84.20
85614;DHT22;76041;50.924;3.932;2024-02-26T12:47:44;7.60;84.00
85614;DHT22;76041;50.924;3.932;2024-02-26T12:50:15;7.50;84.70
85614;DHT22;76041;50.924;3.932;2024-02-26T12:52:43;7.60;85.20
85614;DHT22;76041;50.924;3.932;2024-02-26T12:55:17;7.70;85.00
85614;DHT22;76041;50.924;3.932;2024-02-26T12:57:44;7.80;83.60
85614;DHT22;76041;50.924;3.932;2024-02-26T13:00:16;7.80;83.60
85614;DHT22;76041;50.924;3.932;2024-02-26T13:02:42;7.70;83.80
85614;DHT22;76041;50.924;3.932;2024-02-26T13:05:11;7.70;83.80
85614;DHT22;76041;50.924;3.932;2024-02-26T13:07:46;7.70;83.10
85614;DHT22;76041;50.924;3.932;2024-02-26T13:10:16;7.70;83.70
85614;DHT22;76041;50.924;3.932;2024-02-26T13:12:48;7.60;84.00
85614;DHT22;76041;50.924;3.932;2024-02-26T13:15:17;7.50;84.10
85614;DHT22;76041;50.924;3.932;2024-02-26T13:17:45;7.40;84.80
85614;DHT22;76041;50.924;3.932;2024-02-26T13:20:12;7.40;85.60
85614;DHT22;76041;50.924;3.932;2024-02-26T13:22:39;7.40;85.20
85614;DHT22;76041;50.924;3.932;2024-02-26T13:25:05;7.50;85.70
85614;DHT22;76041;50.924;3.932;2024-02-26T13:27:34;7.60;84.30
85614;DHT22;76041;50.924;3.932;2024-02-26T13:32:35;7.50;84.80
85614;DHT22;76041;50.924;3.932;2024-02-26T13:35:09;7.60;90.70
85614;DHT22;76041;50.924;3.932;2024-02-26T13:37:36;7.80;87.10
85614;DHT22;76041;50.924;3.932;2024-02-26T13:40:10;7.90;86.00
85614;DHT22;76041;50.924;3.932;2024-02-26T13:42:37;8.40;84.90
85614;DHT22;76041;50.924;3.932;2024-02-26T13:45:03;8.80;80.40
85614;DHT22;76041;50.924;3.932;2024-02-26T13:47:32;8.60;81.20
85614;DHT22;76041;50.924;3.932;2024-02-26T13:49:58;8.60;80.50
85614;DHT22;76041;50.924;3.932;2024-02-26T13:52:25;8.40;81.60
85614;DHT22;76041;50.924;3.932;2024-02-26T13:54:51;8.40;81.70
85614;DHT22;76041;50.924;3.932;2024-02-26T13:57:18;8.20;82.60
85614;DHT22;76041;50.924;3.932;2024-02-26T13:59:44;8.10;82.70
85614;DHT22;76041;50.924;3.932;2024-02-26T14:02:10;8.10;82.40
85614;DHT22;76041;50.924;3.932;2024-02-26T14:04:37;8.00;83.30
85614;DHT22;76041;50.924;3.932;2024-02-26T14:07:03;8.00;83.40
85614;DHT22;76041;50.924;3.932;2024-02-26T14:09:30;7.90;83.80
85614;DHT22;76041;50.924;3.932;2024-02-26T14:11:58;8.00;83.50
85614;DHT22;76041;50.924;3.932;2024-02-26T14:14:24;7.90;82.90
85614;DHT22;76041;50.924;3.932;2024-02-26T14:16:51;7.80;83.70
85614;DHT22;76041;50.924;3.932;2024-02-26T14:19:17;7.70;84.30
85614;DHT22;76041;50.924;3.932;2024-02-26T14:21:42;7.50;84.40
85614;DHT22;76041;50.924;3.932;2024-02-26T14:24:08;7.50;85.60
85614;DHT22;76041;50.924;3.932;2024-02-26T14:26:34;7.40;85.10
85614;DHT22;76041;50.924;3.932;2024-02-26T14:29:00;7.40;85.90
85614;DHT22;76041;50.924;3.932;2024-02-26T14:31:26;7.30;85.60
85614;DHT22;76041;50.924;3.932;2024-02-26T14:33:52;7.40;86.20
85614;DHT22;76041;50.924;3.932;2024-02-26T14:36:20;7.30;86.50
85614;DHT22;76041;50.924;3.932;2024-02-26T14:38:47;7.40;86.30
85614;DHT22;76041;50.924;3.932;2024-02-26T14:41:12;7.40;85.50
85614;DHT22;76041;50.924;3.932;2024-02-26T14:43:38;7.40;85.60
85614;DHT22;76041;50.924;3.932;2024-02-26T14:46:04;7.30;85.80
85614;DHT22;76041;50.924;3.932;2024-02-26T14:48:30;7.30;85.60
85614;DHT22;76041;50.924;3.932;2024-02-26T14:50:57;7.40;86.10
85614;DHT22;76041;50.924;3.932;2024-02-26T14:53:23;7.50;85.60
85614;DHT22;76041;50.924;3.932;2024-02-26T14:55:49;7.50;85.10
85614;DHT22;76041;50.924;3.932;2024-02-26T14:58:16;7.40;85.00
85614;DHT22;76041;50.924;3.932;2024-02-26T15:00:41;7.30;85.80
85614;DHT22;76041;50.924;3.932;2024-02-26T15:03:07;7.30;86.00
85614;DHT22;76041;50.924;3.932;2024-02-26T15:05:34;7.40;86.00
85614;DHT22;76041;50.924;3.932;2024-02-26T15:07:59;7.30;85.60
85614;DHT22;76041;50.924;3.932;2024-02-26T15:10:26;7.30;86.00
85614;DHT22;76041;50.924;3.932;2024-02-26T15:12:52;7.40;85.50
85614;DHT22;76041;50.924;3.932;2024-02-26T15:15:21;7.40;86.20
85614;DHT22;76041;50.924;3.932;2024-02-26T15:17:47;7.40;86.10
85614;DHT22;76041;50.924;3.932;2024-02-26T15:20:15;7.40;85.70
85614;DHT22;76041;50.924;3.932;2024-02-26T15:22:41;7.30;86.10
85614;DHT22;76041;50.924;3.932;2024-02-26T15:25:07;7.40;86.30
85614;DHT22;76041;50.924;3.932;2024-02-26T15:27:33;7.30;85.60
85614;DHT22;76041;50.924;3.932;2024-02-26T15:30:00;7.30;86.50
85614;DHT22;76041;50.924;3.932;2024-02-26T15:32:26;7.30;86.20
85614;DHT22;76041;50.924;3.932;2024-02-26T15:34:53;7.30;85.80
85614;DHT22;76041;50.924;3.932;2024-02-26T15:37:19;7.40;84.80
85614;DHT22;76041;50.924;3.932;2024-02-26T15:39:45;7.30;85.50
85614;DHT22;76041;50.924;3.932;2024-02-26T15:42:12;7.40;85.90
85614;DHT22;76041;50.924;3.932;2024-02-26T15:44:38;7.50;86.20
85614;DHT22;76041;50.924;3.932;2024-02-26T15:47:04;7.50;85.20